Xin'an, China
Current Conditions -  °F | °C
As of 11:00 PM on Thursday 23 Oct 2014 (Local Time) from ZYCC Reporting Station
Smoke Smoke  
Wind Chill: 54°   Ceiling: 2300
Heat Index: 54°   Visibility: 1.7mi
Dew Point: 41°   Wind: 9mph
Humidity: 62%   Direction: 180°S
Pressure: 29.88"   Gusts: NA
Location:  43.75°N, 125.68°E
Report Text: ZYCC 231500Z 18004MPS 2800 FU BKN023 12/05 Q1012 NOSIG
Loading
Personal Weather Stations






























Interactive Weather Map
Tropical Storm Tracking
New forecast layout! Learn more

10-Day Weather Forecast

Advertisements
Track Severe Weather on mobile